createdAt,value
2023-09-30T00:01:16.826Z,99.90
2023-09-30T00:03:43.823Z,99.90
2023-09-30T00:06:10.795Z,99.90
2023-09-30T00:08:40.206Z,99.90
2023-09-30T00:11:07.331Z,99.90
2023-09-30T00:13:34.268Z,99.90
2023-09-30T00:16:01.120Z,99.90
2023-09-30T00:18:28.709Z,99.90
2023-09-30T00:20:55.561Z,99.90
2023-09-30T00:23:22.603Z,99.90
2023-09-30T00:25:51.184Z,99.90
2023-09-30T00:28:18.068Z,99.90
2023-09-30T00:30:48.545Z,99.90
2023-09-30T00:33:15.718Z,99.90
2023-09-30T00:35:42.633Z,99.90
2023-09-30T00:38:10.775Z,99.90
2023-09-30T00:40:37.790Z,99.90
2023-09-30T00:43:04.925Z,99.90
2023-09-30T00:45:33.239Z,99.90
2023-09-30T00:48:00.170Z,99.90
2023-09-30T00:50:28.134Z,99.90
2023-09-30T00:52:55.714Z,99.90
2023-09-30T00:55:23.271Z,99.90
2023-09-30T00:57:51.047Z,99.90
2023-09-30T01:00:18.776Z,99.90
2023-09-30T01:02:45.786Z,99.90
2023-09-30T01:05:12.820Z,99.90
2023-09-30T01:07:39.671Z,99.90
2023-09-30T01:10:07.173Z,99.90
2023-09-30T01:12:35.509Z,99.90
2023-09-30T01:15:05.672Z,99.90
2023-09-30T01:17:33.819Z,99.90
2023-09-30T01:20:02.030Z,99.90
2023-09-30T01:22:31.125Z,99.90
2023-09-30T01:24:57.957Z,99.90
2023-09-30T01:27:24.936Z,99.90
2023-09-30T01:29:52.002Z,99.90
2023-09-30T01:32:18.851Z,99.90
2023-09-30T01:34:45.795Z,99.90
2023-09-30T01:37:12.615Z,99.90
2023-09-30T01:39:40.333Z,99.90
2023-09-30T01:42:07.389Z,99.90
2023-09-30T01:44:34.359Z,99.90
2023-09-30T01:47:01.379Z,99.90
2023-09-30T01:49:28.241Z,99.90
2023-09-30T01:51:56.209Z,99.90
2023-09-30T01:54:23.201Z,99.90
2023-09-30T01:56:50.940Z,99.90
2023-09-30T01:59:18.133Z,99.90
2023-09-30T02:01:47.234Z,99.90
2023-09-30T02:04:16.471Z,99.90
2023-09-30T02:06:43.679Z,99.90
2023-09-30T02:09:10.728Z,99.90
2023-09-30T02:11:38.715Z,99.90
2023-09-30T02:14:07.163Z,99.90
2023-09-30T02:16:34.137Z,99.90
2023-09-30T02:19:03.529Z,99.90
2023-09-30T02:21:30.432Z,99.90
2023-09-30T02:23:58.345Z,99.90
2023-09-30T02:26:26.650Z,99.90
2023-09-30T02:28:54.982Z,99.90
2023-09-30T02:31:21.895Z,99.90
2023-09-30T02:33:48.721Z,99.90
2023-09-30T02:36:16.704Z,99.90
2023-09-30T02:38:44.462Z,99.90
2023-09-30T02:41:11.315Z,99.90
2023-09-30T02:43:39.423Z,99.90
2023-09-30T02:46:06.271Z,99.90
2023-09-30T02:48:33.430Z,99.90
2023-09-30T02:51:00.480Z,99.90
2023-09-30T02:53:28.781Z,99.90
2023-09-30T02:55:57.780Z,99.90
2023-09-30T02:58:25.834Z,99.90
2023-09-30T03:00:54.129Z,99.90
2023-09-30T03:03:21.141Z,99.90
2023-09-30T03:05:51.027Z,99.90
2023-09-30T03:08:17.859Z,99.90
2023-09-30T03:10:44.736Z,99.90
2023-09-30T03:13:11.645Z,99.90
2023-09-30T03:15:39.842Z,99.90
2023-09-30T03:18:07.001Z,99.90
2023-09-30T03:20:33.830Z,99.90
2023-09-30T03:23:00.830Z,99.90
2023-09-30T03:25:28.217Z,99.90
2023-09-30T03:27:55.376Z,99.90
2023-09-30T03:30:22.390Z,99.90
2023-09-30T03:32:49.626Z,99.90
2023-09-30T03:35:18.574Z,99.90
2023-09-30T03:37:47.785Z,99.90
2023-09-30T03:40:19.929Z,99.90
2023-09-30T03:42:50.693Z,99.90
2023-09-30T03:45:18.388Z,99.90
2023-09-30T03:47:45.569Z,99.90
2023-09-30T03:50:15.745Z,99.90
2023-09-30T03:52:47.482Z,99.90
2023-09-30T03:55:21.444Z,99.90
2023-09-30T03:57:50.673Z,99.90
2023-09-30T04:00:20.320Z,99.90
2023-09-30T04:02:53.509Z,99.90
2023-09-30T04:05:21.032Z,99.90
2023-09-30T04:07:48.402Z,99.90
2023-09-30T04:10:15.722Z,99.90
2023-09-30T04:12:42.585Z,99.90
2023-09-30T04:15:13.079Z,99.90
2023-09-30T04:17:40.402Z,99.90
2023-09-30T04:20:17.244Z,99.90
2023-09-30T04:22:49.645Z,99.90
2023-09-30T04:25:17.611Z,99.90
2023-09-30T04:27:46.351Z,99.90
2023-09-30T04:30:13.423Z,99.90
2023-09-30T04:32:40.359Z,99.90
2023-09-30T04:35:09.285Z,99.90
2023-09-30T04:37:37.726Z,99.90
2023-09-30T04:40:20.883Z,99.90
2023-09-30T04:42:48.464Z,99.90
2023-09-30T04:45:21.422Z,99.90
2023-09-30T04:47:50.549Z,99.90
2023-09-30T04:50:17.898Z,99.90
2023-09-30T04:52:46.320Z,99.90
2023-09-30T04:55:14.738Z,99.90
2023-09-30T04:57:41.453Z,99.90
2023-09-30T05:00:12.577Z,99.90
2023-09-30T05:02:39.500Z,99.90
2023-09-30T05:05:07.230Z,99.90
2023-09-30T05:07:34.319Z,99.90
2023-09-30T05:10:03.874Z,99.90
2023-09-30T05:12:30.983Z,99.90
2023-09-30T05:14:58.149Z,99.90
2023-09-30T05:17:25.049Z,99.90
2023-09-30T05:19:52.000Z,99.90
2023-09-30T05:22:24.649Z,99.90
2023-09-30T05:24:53.134Z,99.90
2023-09-30T05:27:20.532Z,99.90
2023-09-30T05:29:47.871Z,99.90
2023-09-30T05:32:15.454Z,99.90
2023-09-30T05:34:42.497Z,99.90
2023-09-30T05:37:09.328Z,99.90
2023-09-30T05:39:36.295Z,99.90
2023-09-30T05:42:04.113Z,99.90
2023-09-30T05:44:31.278Z,99.90
2023-09-30T05:46:58.472Z,99.90
2023-09-30T05:49:25.348Z,99.90
2023-09-30T05:51:52.192Z,99.90
2023-09-30T05:54:19.055Z,99.90
2023-09-30T05:56:46.196Z,99.90
2023-09-30T05:59:14.497Z,99.90
2023-09-30T06:01:42.293Z,99.90
2023-09-30T06:04:09.456Z,99.90
2023-09-30T06:06:36.293Z,99.90
2023-09-30T06:09:03.199Z,99.90
2023-09-30T06:11:30.023Z,99.90
2023-09-30T06:14:00.032Z,99.90
2023-09-30T06:16:27.665Z,99.90
2023-09-30T06:18:55.668Z,99.90
2023-09-30T06:21:23.018Z,99.90
2023-09-30T06:23:50.056Z,99.90
2023-09-30T06:26:17.796Z,99.90
2023-09-30T06:28:46.068Z,99.90
2023-09-30T06:31:13.084Z,99.90
2023-09-30T06:33:41.213Z,99.90
2023-09-30T06:36:12.556Z,99.90
2023-09-30T06:38:39.367Z,99.90
2023-09-30T06:41:06.457Z,99.90
2023-09-30T06:43:34.364Z,99.90
2023-09-30T06:46:06.160Z,99.90
2023-09-30T06:48:33.196Z,99.90
2023-09-30T06:51:01.325Z,99.90
2023-09-30T06:53:28.300Z,99.90
2023-09-30T06:55:55.275Z,99.90
2023-09-30T06:58:22.534Z,99.90
2023-09-30T07:00:51.573Z,99.90
2023-09-30T07:03:21.836Z,99.90
2023-09-30T07:05:50.977Z,99.90
2023-09-30T07:08:18.702Z,99.90
2023-09-30T07:10:47.451Z,99.90
2023-09-30T07:13:14.330Z,99.90
2023-09-30T07:15:41.167Z,99.90
2023-09-30T07:18:08.700Z,99.90
2023-09-30T07:20:35.570Z,99.90
2023-09-30T07:23:18.032Z,99.90
2023-09-30T07:25:45.643Z,99.90
2023-09-30T07:28:13.595Z,99.90
2023-09-30T07:30:41.225Z,99.90
2023-09-30T07:33:08.582Z,99.90
2023-09-30T07:35:35.814Z,99.90
2023-09-30T07:38:04.575Z,99.90
2023-09-30T07:40:31.434Z,99.90
2023-09-30T07:42:58.886Z,99.90
2023-09-30T07:45:26.092Z,99.90
2023-09-30T07:47:53.176Z,99.90
2023-09-30T07:50:20.168Z,99.90
2023-09-30T07:52:47.705Z,99.90
2023-09-30T07:55:14.543Z,99.90
2023-09-30T07:57:44.117Z,99.90
2023-09-30T08:00:15.868Z,99.90
2023-09-30T08:02:43.228Z,99.90
2023-09-30T08:05:10.805Z,99.90
2023-09-30T08:07:38.425Z,99.90
2023-09-30T08:10:06.927Z,99.90
2023-09-30T08:12:34.674Z,99.90
2023-09-30T08:15:04.067Z,99.90
2023-09-30T08:17:30.998Z,99.90
2023-09-30T08:19:57.904Z,99.90
2023-09-30T08:22:28.772Z,99.90
2023-09-30T08:24:56.097Z,99.90
2023-09-30T08:27:25.308Z,99.90
2023-09-30T08:29:52.425Z,99.90
2023-09-30T08:32:19.261Z,99.90
2023-09-30T08:34:46.133Z,99.90
2023-09-30T08:37:12.887Z,99.90
2023-09-30T08:39:44.128Z,99.90
2023-09-30T08:42:15.214Z,99.90
2023-09-30T08:44:42.529Z,99.90
2023-09-30T08:47:10.983Z,99.90
2023-09-30T08:49:44.931Z,99.90
2023-09-30T08:52:12.860Z,99.90
2023-09-30T08:54:40.039Z,99.90
2023-09-30T08:57:10.835Z,99.90
2023-09-30T08:59:41.644Z,99.90
2023-09-30T09:02:11.597Z,99.90
2023-09-30T09:04:38.993Z,99.90
2023-09-30T09:07:05.983Z,99.90
2023-09-30T09:09:33.304Z,99.90
2023-09-30T09:12:00.170Z,99.90
2023-09-30T09:14:47.406Z,99.90
2023-09-30T09:17:15.282Z,99.90
2023-09-30T09:19:42.177Z,99.90
2023-09-30T09:22:09.188Z,99.90
2023-09-30T09:24:38.823Z,99.90
2023-09-30T09:27:18.183Z,99.90
2023-09-30T09:29:47.046Z,99.90
2023-09-30T09:32:18.046Z,99.90
2023-09-30T09:34:46.138Z,99.90
2023-09-30T09:37:19.034Z,99.90
2023-09-30T09:39:56.795Z,99.90
2023-09-30T09:42:30.476Z,99.90
2023-09-30T09:45:07.162Z,99.90
2023-09-30T09:47:34.933Z,99.90
2023-09-30T09:50:04.443Z,99.90
2023-09-30T09:52:32.471Z,99.90
2023-09-30T09:54:59.898Z,99.90
2023-09-30T09:57:28.578Z,99.90
2023-09-30T09:59:58.469Z,99.90
2023-09-30T10:02:29.756Z,99.90
2023-09-30T10:04:57.854Z,99.90
2023-09-30T10:07:29.246Z,99.90
2023-09-30T10:10:00.020Z,99.90
2023-09-30T10:12:27.932Z,99.90
2023-09-30T10:14:54.927Z,99.90
2023-09-30T10:17:21.798Z,99.90
2023-09-30T10:20:08.500Z,99.90
2023-09-30T10:22:35.766Z,99.90
2023-09-30T10:25:22.754Z,99.90
2023-09-30T10:27:49.623Z,99.90
2023-09-30T10:30:17.406Z,99.90
2023-09-30T10:32:54.233Z,99.90
2023-09-30T10:35:42.559Z,99.90
2023-09-30T10:38:31.110Z,99.90
2023-09-30T10:40:58.860Z,99.90
2023-09-30T10:43:33.849Z,99.90
2023-09-30T10:46:02.043Z,99.90
2023-09-30T10:48:42.649Z,99.90
2023-09-30T10:51:16.625Z,99.90
2023-09-30T10:53:46.898Z,99.90
2023-09-30T10:56:14.274Z,99.90
2023-09-30T10:58:52.061Z,99.90
2023-09-30T11:01:20.802Z,99.90
2023-09-30T11:03:48.740Z,99.90
2023-09-30T11:06:19.063Z,99.90
2023-09-30T11:08:55.342Z,99.90
2023-09-30T11:11:38.420Z,99.90
2023-09-30T11:14:17.185Z,99.90
2023-09-30T11:16:44.813Z,99.90
2023-09-30T11:19:14.115Z,99.90
2023-09-30T11:21:41.981Z,99.90
2023-09-30T11:24:09.609Z,99.90
2023-09-30T11:26:39.481Z,99.90
2023-09-30T11:29:14.998Z,99.90
2023-09-30T11:31:43.856Z,99.90
2023-09-30T11:34:12.697Z,99.90
2023-09-30T11:36:50.219Z,99.90
2023-09-30T11:39:43.609Z,99.90
2023-09-30T11:42:21.218Z,99.90
2023-09-30T11:44:48.890Z,99.90
2023-09-30T11:47:16.242Z,99.90
2023-09-30T11:49:49.245Z,99.90
2023-09-30T11:52:18.690Z,99.90
2023-09-30T11:54:46.684Z,99.90
2023-09-30T11:57:16.423Z,99.90
2023-09-30T11:59:45.265Z,99.90
2023-09-30T12:02:15.258Z,99.90
2023-09-30T12:04:44.790Z,99.90
2023-09-30T12:07:12.591Z,99.90
2023-09-30T12:09:40.752Z,99.90
2023-09-30T12:12:15.711Z,99.60
2023-09-30T12:14:43.049Z,99.90
2023-09-30T12:17:13.961Z,98.40
2023-09-30T12:19:42.233Z,98.50
2023-09-30T12:22:10.856Z,97.90
2023-09-30T12:24:37.647Z,97.40
2023-09-30T12:27:05.702Z,95.60
2023-09-30T12:29:33.351Z,94.20
2023-09-30T12:32:00.233Z,93.00
2023-09-30T12:34:28.606Z,92.30
2023-09-30T12:36:57.992Z,90.20
2023-09-30T12:39:27.080Z,90.10
2023-09-30T12:41:54.476Z,90.20
2023-09-30T12:44:21.342Z,90.00
2023-09-30T12:46:48.676Z,90.10
2023-09-30T12:49:16.089Z,85.90
2023-09-30T12:51:43.125Z,85.20
2023-09-30T12:54:11.714Z,87.00
2023-09-30T12:56:38.502Z,87.60
2023-09-30T12:59:05.540Z,88.30
2023-09-30T13:01:35.298Z,85.70
2023-09-30T13:04:03.385Z,87.20
2023-09-30T13:06:32.421Z,85.50
2023-09-30T13:09:00.473Z,88.60
2023-09-30T13:11:27.758Z,90.20
2023-09-30T13:13:54.572Z,91.70
2023-09-30T13:16:21.683Z,91.70
2023-09-30T13:18:49.003Z,91.70
2023-09-30T13:21:15.846Z,91.90
2023-09-30T13:23:43.249Z,92.30
2023-09-30T13:26:10.143Z,92.50
2023-09-30T13:28:36.955Z,92.20
2023-09-30T13:31:03.902Z,90.90
2023-09-30T13:33:31.054Z,91.00
2023-09-30T13:35:57.956Z,90.30
2023-09-30T13:38:24.945Z,88.60
2023-09-30T13:40:51.850Z,86.00
2023-09-30T13:43:18.634Z,82.30
2023-09-30T13:45:45.564Z,82.20
2023-09-30T13:48:12.802Z,84.10
2023-09-30T13:50:39.944Z,82.20
2023-09-30T13:53:06.804Z,80.50
2023-09-30T13:55:33.688Z,82.60
2023-09-30T13:58:00.501Z,80.70
2023-09-30T14:00:27.405Z,80.90
2023-09-30T14:02:54.578Z,81.40
2023-09-30T14:05:21.847Z,82.00
2023-09-30T14:07:49.475Z,81.40
2023-09-30T14:10:16.721Z,79.60
2023-09-30T14:12:44.095Z,77.60
2023-09-30T14:15:11.594Z,79.20
2023-09-30T14:17:38.892Z,81.90
2023-09-30T14:20:07.181Z,83.70
2023-09-30T14:22:34.856Z,85.80
2023-09-30T14:25:02.271Z,84.80
2023-09-30T14:27:29.261Z,85.80
2023-09-30T14:29:56.101Z,86.50
2023-09-30T14:32:24.311Z,85.70
2023-09-30T14:34:51.368Z,85.10
2023-09-30T14:37:18.528Z,85.20
2023-09-30T14:39:45.600Z,84.60
2023-09-30T14:42:12.708Z,84.70
2023-09-30T14:44:39.554Z,84.50
2023-09-30T14:47:06.464Z,84.80
2023-09-30T14:49:33.564Z,84.70
2023-09-30T14:52:00.522Z,86.60
2023-09-30T14:54:27.514Z,86.10
2023-09-30T14:56:54.313Z,87.70
2023-09-30T14:59:21.663Z,88.80
2023-09-30T15:01:49.972Z,89.50
2023-09-30T15:04:17.066Z,90.10
2023-09-30T15:06:44.274Z,89.90
2023-09-30T15:09:12.541Z,91.00
2023-09-30T15:11:39.521Z,91.30
2023-09-30T15:14:06.311Z,91.30
2023-09-30T15:16:33.641Z,91.70
2023-09-30T15:19:00.728Z,92.40
2023-09-30T15:21:27.919Z,92.70
2023-09-30T15:23:54.691Z,92.80
2023-09-30T15:26:21.570Z,92.80
2023-09-30T15:28:48.765Z,92.60
2023-09-30T15:31:16.271Z,92.60
2023-09-30T15:33:44.389Z,93.40
2023-09-30T15:36:14.793Z,93.60
2023-09-30T15:38:41.632Z,94.20
2023-09-30T15:41:08.595Z,94.50
2023-09-30T15:43:36.642Z,95.00
2023-09-30T15:46:04.534Z,95.70
2023-09-30T15:48:31.751Z,95.90
2023-09-30T15:50:58.631Z,97.20
2023-09-30T15:53:25.610Z,98.50
2023-09-30T15:55:53.770Z,98.00
2023-09-30T15:58:20.749Z,99.10
2023-09-30T16:00:49.830Z,98.00
2023-09-30T16:03:17.097Z,98.90
2023-09-30T16:05:44.238Z,98.90
2023-09-30T16:08:11.785Z,99.80
2023-09-30T16:10:38.816Z,99.90
2023-09-30T16:13:10.011Z,99.90
2023-09-30T16:15:41.771Z,99.90
2023-09-30T16:18:09.652Z,99.90
2023-09-30T16:20:36.622Z,99.90
2023-09-30T16:23:03.644Z,99.90
2023-09-30T16:25:30.454Z,99.90
2023-09-30T16:28:00.433Z,99.90
2023-09-30T16:30:29.914Z,99.90
2023-09-30T16:32:57.257Z,99.90
2023-09-30T16:35:24.115Z,99.90
2023-09-30T16:37:51.007Z,99.90
2023-09-30T16:40:17.899Z,99.90
2023-09-30T16:42:44.740Z,99.90
2023-09-30T16:45:11.832Z,99.90
2023-09-30T16:47:39.090Z,99.90
2023-09-30T16:50:06.510Z,99.90
2023-09-30T16:52:33.736Z,99.90
2023-09-30T16:55:01.030Z,99.90
2023-09-30T16:57:28.218Z,99.90
2023-09-30T16:59:56.473Z,99.90
2023-09-30T17:02:24.091Z,99.90
2023-09-30T17:04:52.361Z,99.90
2023-09-30T17:07:19.542Z,99.90
2023-09-30T17:09:46.524Z,99.90
2023-09-30T17:12:13.917Z,99.90
2023-09-30T17:14:40.827Z,99.90
2023-09-30T17:17:08.153Z,99.90
2023-09-30T17:19:35.417Z,99.90
2023-09-30T17:22:02.362Z,99.90
2023-09-30T17:24:32.499Z,99.90
2023-09-30T17:26:59.418Z,99.90
2023-09-30T17:29:26.324Z,99.90
2023-09-30T17:31:53.177Z,99.90
2023-09-30T17:34:20.239Z,99.90
2023-09-30T17:36:47.533Z,99.90
2023-09-30T17:39:14.362Z,99.90
2023-09-30T17:41:41.225Z,99.90
2023-09-30T17:44:10.540Z,99.90
2023-09-30T17:46:37.637Z,99.90
2023-09-30T17:49:04.769Z,99.90
2023-09-30T17:51:32.996Z,99.90
2023-09-30T17:54:00.367Z,99.90
2023-09-30T17:56:28.227Z,99.90
2023-09-30T17:58:56.784Z,99.90
2023-09-30T18:01:25.698Z,99.90
2023-09-30T18:03:56.189Z,99.90
2023-09-30T18:06:23.249Z,99.90
2023-09-30T18:08:50.137Z,99.90
2023-09-30T18:11:18.843Z,99.90
2023-09-30T18:13:46.218Z,99.90
2023-09-30T18:16:13.210Z,99.90
2023-09-30T18:18:42.832Z,99.90
2023-09-30T18:21:13.993Z,99.90
2023-09-30T18:23:41.874Z,99.90
2023-09-30T18:26:08.770Z,99.90
2023-09-30T18:28:35.863Z,99.90
2023-09-30T18:31:03.540Z,99.90
2023-09-30T18:33:31.844Z,99.90
2023-09-30T18:35:59.819Z,99.90
2023-09-30T18:38:26.808Z,99.90
2023-09-30T18:40:53.965Z,99.90
2023-09-30T18:43:22.390Z,99.90
2023-09-30T18:45:50.206Z,99.90
2023-09-30T18:48:17.351Z,99.90
2023-09-30T18:50:49.833Z,99.90
2023-09-30T18:53:17.027Z,99.90
2023-09-30T18:55:48.124Z,99.90
2023-09-30T18:58:15.383Z,99.90
2023-09-30T19:00:45.856Z,99.90
2023-09-30T19:03:12.932Z,99.90
2023-09-30T19:05:41.348Z,99.90
2023-09-30T19:08:09.612Z,99.90
2023-09-30T19:10:38.135Z,99.90
2023-09-30T19:13:05.732Z,99.90
2023-09-30T19:15:32.904Z,99.90
2023-09-30T19:18:01.066Z,99.90
2023-09-30T19:20:27.887Z,99.90
2023-09-30T19:22:55.505Z,99.90
2023-09-30T19:25:23.870Z,99.90
2023-09-30T19:27:51.355Z,99.90
2023-09-30T19:30:18.580Z,99.90
2023-09-30T19:32:45.700Z,99.90
2023-09-30T19:35:12.973Z,99.90
2023-09-30T19:37:40.041Z,99.90
2023-09-30T19:40:07.768Z,99.90
2023-09-30T19:42:37.018Z,99.90
2023-09-30T19:45:04.446Z,99.90
2023-09-30T19:47:32.630Z,99.90
2023-09-30T19:49:59.520Z,99.90
2023-09-30T19:52:30.935Z,99.90
2023-09-30T19:54:58.281Z,99.90
2023-09-30T19:57:25.699Z,99.90
2023-09-30T19:59:52.730Z,99.90
2023-09-30T20:02:21.810Z,99.90
2023-09-30T20:04:49.908Z,99.90
2023-09-30T20:07:17.242Z,99.90
2023-09-30T20:09:45.411Z,99.90
2023-09-30T20:12:14.267Z,99.90
2023-09-30T20:14:45.128Z,99.90
2023-09-30T20:17:13.338Z,99.90
2023-09-30T20:19:40.161Z,99.90
2023-09-30T20:22:07.132Z,99.90
2023-09-30T20:24:34.246Z,99.90
2023-09-30T20:27:01.421Z,99.90
2023-09-30T20:29:29.967Z,99.90
2023-09-30T20:31:57.377Z,99.90
2023-09-30T20:34:24.450Z,99.90
2023-09-30T20:36:53.130Z,99.90
2023-09-30T20:39:21.699Z,99.90
2023-09-30T20:41:51.166Z,99.90
2023-09-30T20:44:18.702Z,99.90
2023-09-30T20:46:46.704Z,99.90
2023-09-30T20:49:14.177Z,99.90
2023-09-30T20:51:41.082Z,99.90
2023-09-30T20:54:08.961Z,99.90
2023-09-30T20:56:36.702Z,99.90
2023-09-30T20:59:04.322Z,99.90
2023-09-30T21:01:32.214Z,99.90
2023-09-30T21:03:59.230Z,99.90
2023-09-30T21:06:26.125Z,99.90
2023-09-30T21:08:53.004Z,99.90
2023-09-30T21:11:19.794Z,99.90
2023-09-30T21:13:47.337Z,99.90
2023-09-30T21:16:14.501Z,99.90
2023-09-30T21:18:41.753Z,99.90
2023-09-30T21:21:11.752Z,99.90
2023-09-30T21:23:39.427Z,99.90
2023-09-30T21:26:06.378Z,99.90
2023-09-30T21:28:33.288Z,99.90
2023-09-30T21:31:02.379Z,99.90
2023-09-30T21:33:29.374Z,99.90
2023-09-30T21:35:59.016Z,99.90
2023-09-30T21:38:26.095Z,99.90
2023-09-30T21:40:53.099Z,99.90
2023-09-30T21:43:20.016Z,99.90
2023-09-30T21:45:47.002Z,99.90
2023-09-30T21:48:13.993Z,99.90
2023-09-30T21:50:41.095Z,99.90
2023-09-30T21:53:09.109Z,99.90
2023-09-30T21:55:36.388Z,99.90
2023-09-30T21:58:04.499Z,99.90
2023-09-30T22:00:40.514Z,99.90
2023-09-30T22:03:09.844Z,99.90
2023-09-30T22:05:40.206Z,99.90
2023-09-30T22:08:07.279Z,99.90
2023-09-30T22:10:34.386Z,99.90
2023-09-30T22:13:02.603Z,99.90
2023-09-30T22:15:30.057Z,99.90
2023-09-30T22:17:57.043Z,99.90
2023-09-30T22:20:23.894Z,99.90
2023-09-30T22:22:51.935Z,99.90
2023-09-30T22:25:19.632Z,99.90
2023-09-30T22:27:46.715Z,99.90
2023-09-30T22:30:14.009Z,99.90
2023-09-30T22:32:40.860Z,99.90
2023-09-30T22:35:08.568Z,99.90
2023-09-30T22:37:35.473Z,99.90
2023-09-30T22:40:04.713Z,99.90
2023-09-30T22:42:31.501Z,99.90
2023-09-30T22:44:58.449Z,99.90
2023-09-30T22:47:27.159Z,99.90
2023-09-30T22:49:54.131Z,99.90
2023-09-30T22:52:21.081Z,99.90
2023-09-30T22:54:48.019Z,99.90
2023-09-30T22:57:14.913Z,99.90
2023-09-30T22:59:41.808Z,99.90
2023-09-30T23:02:08.634Z,99.90
2023-09-30T23:04:36.055Z,99.90
2023-09-30T23:07:02.977Z,99.90
2023-09-30T23:09:29.845Z,99.90
2023-09-30T23:11:56.733Z,99.90
2023-09-30T23:14:24.199Z,99.90
2023-09-30T23:16:51.817Z,99.90
2023-09-30T23:19:20.503Z,99.90
2023-09-30T23:21:48.086Z,99.90
2023-09-30T23:24:16.361Z,99.90
2023-09-30T23:26:43.250Z,99.90
2023-09-30T23:29:10.222Z,99.90
2023-09-30T23:31:41.963Z,99.90
2023-09-30T23:34:10.358Z,99.90
2023-09-30T23:36:39.838Z,99.90
2023-09-30T23:39:19.782Z,99.90
2023-09-30T23:41:49.803Z,99.90
2023-09-30T23:44:18.064Z,99.90
2023-09-30T23:46:46.670Z,99.90
2023-09-30T23:49:15.021Z,99.90
2023-09-30T23:51:42.147Z,99.90
2023-09-30T23:54:12.322Z,99.90
2023-09-30T23:56:39.765Z,99.90
2023-09-30T23:59:10.830Z,99.90
